Weather at Carhart Farms Airport

Public forecast

Using degrees Fahrenheit for public forecast. Weather courtesy of forecast.io.

Closest aviation weather report (METAR) to Carhart Farms Airport

Closest report is La Crosse Municipal Airport, 11.6 nm (21.4 km) SSE. Retrieved 2021/06/13 09:53 UTC (49 minutes ago):

KLSE 130953Z AUTO 00000KT 10SM CLR 16/13 A3003 RMK AO2 SLP160 T01560128

Closest aviation forecast (TAF) to Carhart Farms Airport

Closest forecast is La Crosse Municipal Airport, 11.6 nm (21.4 km) SSE. Retrieved 2021/06/13 06:22 UTC (4 hours ago):

TAF KLSE 130520Z 1306/1406 VRB02KT P6SM SKC FM131600 30005KT P6SM SKC FM132000 27009G18KT P6SM SKC FM140200 30006KT P6SM SKC